sensor_id;sensor_type;location;lat;lon;timestamp;pressure;altitude;pressure_sealevel;temperature;humidity
59877;BME280;45749;51.140;17.184;2023-04-09T00:01:24;100893.69;;;8.75;76.66
59877;BME280;45749;51.140;17.184;2023-04-09T00:03:50;100882.44;;;8.73;76.40
59877;BME280;45749;51.140;17.184;2023-04-09T00:06:15;100891.00;;;8.77;76.56
59877;BME280;45749;51.140;17.184;2023-04-09T00:08:41;100884.13;;;8.74;76.51
59877;BME280;45749;51.140;17.184;2023-04-09T00:11:06;100892.00;;;8.74;76.61
59877;BME280;45749;51.140;17.184;2023-04-09T00:13:31;100891.06;;;8.75;76.41
59877;BME280;45749;51.140;17.184;2023-04-09T00:15:57;100889.47;;;8.73;76.45
59877;BME280;45749;51.140;17.184;2023-04-09T00:18:22;100884.47;;;8.68;76.48
59877;BME280;45749;51.140;17.184;2023-04-09T00:20:48;100881.81;;;8.68;76.56
59877;BME280;45749;51.140;17.184;2023-04-09T00:23:13;100880.31;;;8.64;76.57
59877;BME280;45749;51.140;17.184;2023-04-09T00:25:38;100886.56;;;8.61;76.69
59877;BME280;45749;51.140;17.184;2023-04-09T00:28:04;100885.75;;;8.61;76.81
59877;BME280;45749;51.140;17.184;2023-04-09T00:30:30;100890.16;;;8.60;76.65
59877;BME280;45749;51.140;17.184;2023-04-09T00:32:55;100896.53;;;8.56;76.77
59877;BME280;45749;51.140;17.184;2023-04-09T00:35:21;100895.75;;;8.54;76.84
59877;BME280;45749;51.140;17.184;2023-04-09T00:37:46;100886.41;;;8.49;76.82
59877;BME280;45749;51.140;17.184;2023-04-09T00:40:12;100893.44;;;8.48;76.96
59877;BME280;45749;51.140;17.184;2023-04-09T00:42:38;100897.69;;;8.51;76.90
59877;BME280;45749;51.140;17.184;2023-04-09T00:45:04;100897.69;;;8.51;76.84
59877;BME280;45749;51.140;17.184;2023-04-09T00:47:31;100892.59;;;8.48;76.81
59877;BME280;45749;51.140;17.184;2023-04-09T00:49:57;100890.16;;;8.44;76.91
59877;BME280;45749;51.140;17.184;2023-04-09T00:52:25;100900.50;;;8.48;77.05
59877;BME280;45749;51.140;17.184;2023-04-09T00:54:51;100893.72;;;8.43;77.06
59877;BME280;45749;51.140;17.184;2023-04-09T00:57:17;100902.72;;;8.39;77.25
59877;BME280;45749;51.140;17.184;2023-04-09T00:59:44;100898.31;;;8.40;77.23
59877;BME280;45749;51.140;17.184;2023-04-09T01:02:10;100901.66;;;8.42;77.41
59877;BME280;45749;51.140;17.184;2023-04-09T01:04:35;100902.34;;;8.45;77.47
59877;BME280;45749;51.140;17.184;2023-04-09T01:10:47;100911.97;;;8.47;77.39
59877;BME280;45749;51.140;17.184;2023-04-09T01:13:38;100912.28;;;8.40;77.47
59877;BME280;45749;51.140;17.184;2023-04-09T01:16:09;100906.09;;;8.41;77.59
59877;BME280;45749;51.140;17.184;2023-04-09T01:18:43;100914.66;;;8.45;77.55
59877;BME280;45749;51.140;17.184;2023-04-09T01:21:15;100919.06;;;8.44;77.45
59877;BME280;45749;51.140;17.184;2023-04-09T01:27:07;100926.38;;;8.55;77.47
59877;BME280;45749;51.140;17.184;2023-04-09T01:29:36;100926.47;;;8.54;77.40
59877;BME280;45749;51.140;17.184;2023-04-09T01:32:04;100924.84;;;8.51;77.29
59877;BME280;45749;51.140;17.184;2023-04-09T01:34:32;100927.56;;;8.50;77.43
59877;BME280;45749;51.140;17.184;2023-04-09T01:36:59;100936.53;;;8.45;77.50
59877;BME280;45749;51.140;17.184;2023-04-09T01:39:27;100932.47;;;8.40;77.55
59877;BME280;45749;51.140;17.184;2023-04-09T01:41:53;100936.97;;;8.38;77.57
59877;BME280;45749;51.140;17.184;2023-04-09T01:44:21;100933.63;;;8.34;77.63
59877;BME280;45749;51.140;17.184;2023-04-09T01:46:48;100934.41;;;8.36;77.75
59877;BME280;45749;51.140;17.184;2023-04-09T01:49:15;100939.72;;;8.35;77.89
59877;BME280;45749;51.140;17.184;2023-04-09T01:51:41;100939.13;;;8.30;77.80
59877;BME280;45749;51.140;17.184;2023-04-09T01:54:07;100938.47;;;8.26;78.00
59877;BME280;45749;51.140;17.184;2023-04-09T01:56:40;100938.00;;;8.18;77.91
59877;BME280;45749;51.140;17.184;2023-04-09T01:59:06;100938.25;;;8.13;78.20
59877;BME280;45749;51.140;17.184;2023-04-09T02:01:34;100931.53;;;8.08;78.29
59877;BME280;45749;51.140;17.184;2023-04-09T02:04:05;100934.94;;;8.10;78.39
59877;BME280;45749;51.140;17.184;2023-04-09T02:06:39;100933.22;;;8.09;78.39
59877;BME280;45749;51.140;17.184;2023-04-09T02:09:07;100926.19;;;8.09;78.43
59877;BME280;45749;51.140;17.184;2023-04-09T02:11:37;100925.59;;;8.04;78.53
59877;BME280;45749;51.140;17.184;2023-04-09T02:14:03;100935.09;;;8.07;78.49
59877;BME280;45749;51.140;17.184;2023-04-09T02:16:30;100940.34;;;8.07;78.56
59877;BME280;45749;51.140;17.184;2023-04-09T02:18:56;100941.25;;;8.06;78.62
59877;BME280;45749;51.140;17.184;2023-04-09T02:21:22;100944.03;;;8.03;78.85
59877;BME280;45749;51.140;17.184;2023-04-09T02:23:48;100942.50;;;7.98;78.73
59877;BME280;45749;51.140;17.184;2023-04-09T02:26:13;100943.88;;;7.90;78.81
59877;BME280;45749;51.140;17.184;2023-04-09T02:28:38;100942.22;;;7.87;79.08
59877;BME280;45749;51.140;17.184;2023-04-09T02:31:04;100939.66;;;7.86;79.32
59877;BME280;45749;51.140;17.184;2023-04-09T02:33:29;100942.13;;;7.89;79.30
59877;BME280;45749;51.140;17.184;2023-04-09T02:35:54;100935.78;;;7.93;79.34
59877;BME280;45749;51.140;17.184;2023-04-09T02:38:20;100944.47;;;7.95;79.20
59877;BME280;45749;51.140;17.184;2023-04-09T02:40:45;100945.47;;;7.92;79.21
59877;BME280;45749;51.140;17.184;2023-04-09T02:43:11;100948.09;;;7.92;79.20
59877;BME280;45749;51.140;17.184;2023-04-09T02:45:36;100941.97;;;7.92;79.31
59877;BME280;45749;51.140;17.184;2023-04-09T02:48:02;100937.81;;;7.88;79.39
59877;BME280;45749;51.140;17.184;2023-04-09T02:50:27;100927.72;;;7.80;79.51
59877;BME280;45749;51.140;17.184;2023-04-09T02:52:53;100942.38;;;7.84;79.67
59877;BME280;45749;51.140;17.184;2023-04-09T02:55:19;100934.50;;;7.84;79.70
59877;BME280;45749;51.140;17.184;2023-04-09T02:57:44;100940.59;;;7.85;79.87
59877;BME280;45749;51.140;17.184;2023-04-09T03:00:10;100932.63;;;7.86;79.89
59877;BME280;45749;51.140;17.184;2023-04-09T03:02:36;100934.34;;;7.87;80.00
59877;BME280;45749;51.140;17.184;2023-04-09T03:05:02;100935.88;;;7.91;79.81
59877;BME280;45749;51.140;17.184;2023-04-09T03:07:27;100935.72;;;7.94;79.86
59877;BME280;45749;51.140;17.184;2023-04-09T03:09:53;100936.50;;;7.96;79.87
59877;BME280;45749;51.140;17.184;2023-04-09T03:12:18;100933.88;;;7.96;80.07
59877;BME280;45749;51.140;17.184;2023-04-09T03:14:43;100938.03;;;8.01;80.07
59877;BME280;45749;51.140;17.184;2023-04-09T03:17:09;100931.78;;;8.03;80.01
59877;BME280;45749;51.140;17.184;2023-04-09T03:19:34;100930.75;;;8.06;79.96
59877;BME280;45749;51.140;17.184;2023-04-09T03:22:00;100935.94;;;8.07;80.24
59877;BME280;45749;51.140;17.184;2023-04-09T03:24:25;100921.13;;;8.06;80.17
59877;BME280;45749;51.140;17.184;2023-04-09T03:26:50;100930.59;;;8.09;80.17
59877;BME280;45749;51.140;17.184;2023-04-09T03:29:16;100918.22;;;8.11;80.37
59877;BME280;45749;51.140;17.184;2023-04-09T03:31:41;100919.75;;;8.15;80.30
59877;BME280;45749;51.140;17.184;2023-04-09T03:34:06;100923.22;;;8.15;80.25
59877;BME280;45749;51.140;17.184;2023-04-09T03:36:32;100921.44;;;8.16;80.16
59877;BME280;45749;51.140;17.184;2023-04-09T03:38:57;100928.41;;;8.17;80.22
59877;BME280;45749;51.140;17.184;2023-04-09T03:41:25;100925.84;;;8.15;80.19
59877;BME280;45749;51.140;17.184;2023-04-09T03:43:51;100923.91;;;8.19;80.44
59877;BME280;45749;51.140;17.184;2023-04-09T03:46:17;100913.50;;;8.17;80.35
59877;BME280;45749;51.140;17.184;2023-04-09T03:48:43;100920.22;;;8.23;80.35
59877;BME280;45749;51.140;17.184;2023-04-09T03:51:16;100929.09;;;8.20;80.18
59877;BME280;45749;51.140;17.184;2023-04-09T03:53:42;100930.72;;;8.23;80.42
59877;BME280;45749;51.140;17.184;2023-04-09T03:56:08;100933.25;;;8.25;80.51
59877;BME280;45749;51.140;17.184;2023-04-09T03:58:33;100936.56;;;8.28;80.52
59877;BME280;45749;51.140;17.184;2023-04-09T04:00:59;100936.56;;;8.28;80.30
59877;BME280;45749;51.140;17.184;2023-04-09T04:03:25;100944.47;;;8.28;80.21
59877;BME280;45749;51.140;17.184;2023-04-09T04:05:50;100935.91;;;8.25;80.33
59877;BME280;45749;51.140;17.184;2023-04-09T04:08:16;100945.63;;;8.22;80.25
59877;BME280;45749;51.140;17.184;2023-04-09T04:10:41;100946.50;;;8.23;80.53
59877;BME280;45749;51.140;17.184;2023-04-09T04:13:07;100940.63;;;8.18;80.49
59877;BME280;45749;51.140;17.184;2023-04-09T04:15:33;100956.41;;;8.18;80.68
59877;BME280;45749;51.140;17.184;2023-04-09T04:18:03;100954.78;;;8.15;80.66
59877;BME280;45749;51.140;17.184;2023-04-09T04:20:28;100948.00;;;8.11;80.83
59877;BME280;45749;51.140;17.184;2023-04-09T04:22:56;100947.13;;;8.11;81.08
59877;BME280;45749;51.140;17.184;2023-04-09T04:25:22;100948.78;;;8.13;80.96
59877;BME280;45749;51.140;17.184;2023-04-09T04:27:47;100955.47;;;8.19;81.19
59877;BME280;45749;51.140;17.184;2023-04-09T04:30:12;100944.19;;;8.17;81.02
59877;BME280;45749;51.140;17.184;2023-04-09T04:32:38;100953.00;;;8.16;81.15
59877;BME280;45749;51.140;17.184;2023-04-09T04:35:03;100954.78;;;8.15;81.22
59877;BME280;45749;51.140;17.184;2023-04-09T04:37:29;100952.31;;;8.12;81.55
59877;BME280;45749;51.140;17.184;2023-04-09T04:39:54;100949.69;;;8.12;81.54
59877;BME280;45749;51.140;17.184;2023-04-09T04:42:20;100956.34;;;8.19;81.47
59877;BME280;45749;51.140;17.184;2023-04-09T04:44:45;100944.09;;;8.18;81.55
59877;BME280;45749;51.140;17.184;2023-04-09T04:47:11;100954.56;;;8.20;81.47
59877;BME280;45749;51.140;17.184;2023-04-09T04:49:36;100956.41;;;8.18;81.68
59877;BME280;45749;51.140;17.184;2023-04-09T04:52:01;100947.13;;;8.11;81.68
59877;BME280;45749;51.140;17.184;2023-04-09T04:54:27;100952.16;;;8.15;81.59
59877;BME280;45749;51.140;17.184;2023-04-09T04:56:52;100953.94;;;8.15;81.83
59877;BME280;45749;51.140;17.184;2023-04-09T04:59:18;100963.34;;;8.19;82.13
59877;BME280;45749;51.140;17.184;2023-04-09T05:01:43;100961.50;;;8.21;81.98
59877;BME280;45749;51.140;17.184;2023-04-09T05:04:08;100946.66;;;8.20;81.92
59877;BME280;45749;51.140;17.184;2023-04-09T05:06:34;100950.81;;;8.24;81.98
59877;BME280;45749;51.140;17.184;2023-04-09T05:08:59;100956.88;;;8.26;82.02
59877;BME280;45749;51.140;17.184;2023-04-09T05:11:26;100958.78;;;8.22;82.18
59877;BME280;45749;51.140;17.184;2023-04-09T05:13:51;100952.66;;;8.22;82.00
59877;BME280;45749;51.140;17.184;2023-04-09T05:16:20;100964.13;;;8.21;82.38
59877;BME280;45749;51.140;17.184;2023-04-09T05:18:46;100950.13;;;8.20;82.30
59877;BME280;45749;51.140;17.184;2023-04-09T05:21:11;100953.19;;;8.29;82.50
59877;BME280;45749;51.140;17.184;2023-04-09T05:23:37;100952.13;;;8.33;82.37
59877;BME280;45749;51.140;17.184;2023-04-09T05:26:02;100964.25;;;8.35;82.37
59877;BME280;45749;51.140;17.184;2023-04-09T05:28:28;100962.72;;;8.31;82.39
59877;BME280;45749;51.140;17.184;2023-04-09T05:30:53;100959.34;;;8.29;82.46
59877;BME280;45749;51.140;17.184;2023-04-09T05:33:19;100960.19;;;8.30;82.73
59877;BME280;45749;51.140;17.184;2023-04-09T05:35:44;100965.28;;;8.33;82.50
59877;BME280;45749;51.140;17.184;2023-04-09T05:38:10;100969.44;;;8.37;82.74
59877;BME280;45749;51.140;17.184;2023-04-09T05:40:37;100971.94;;;8.40;82.65
59877;BME280;45749;51.140;17.184;2023-04-09T05:43:03;100975.84;;;8.49;82.82
59877;BME280;45749;51.140;17.184;2023-04-09T05:45:28;100973.97;;;8.51;82.93
59877;BME280;45749;51.140;17.184;2023-04-09T05:47:53;100971.63;;;8.46;83.05
59877;BME280;45749;51.140;17.184;2023-04-09T05:50:19;100972.06;;;8.37;82.92
59877;BME280;45749;51.140;17.184;2023-04-09T05:52:45;100973.78;;;8.38;82.96
59877;BME280;45749;51.140;17.184;2023-04-09T05:55:10;100966.50;;;8.26;82.93
59877;BME280;45749;51.140;17.184;2023-04-09T05:57:36;100974.31;;;8.27;83.14
59877;BME280;45749;51.140;17.184;2023-04-09T06:00:01;100966.44;;;8.27;83.16
59877;BME280;45749;51.140;17.184;2023-04-09T06:02:27;100967.91;;;8.15;83.67
59877;BME280;45749;51.140;17.184;2023-04-09T06:04:52;100975.91;;;8.14;83.81
59877;BME280;45749;51.140;17.184;2023-04-09T06:07:18;100970.81;;;8.11;84.07
59877;BME280;45749;51.140;17.184;2023-04-09T06:09:43;100977.16;;;8.07;84.64
59877;BME280;45749;51.140;17.184;2023-04-09T06:12:11;100969.44;;;8.04;84.48
59877;BME280;45749;51.140;17.184;2023-04-09T06:14:36;100968.59;;;8.03;84.42
59877;BME280;45749;51.140;17.184;2023-04-09T06:17:02;100963.53;;;7.98;84.89
59877;BME280;45749;51.140;17.184;2023-04-09T06:19:27;100965.16;;;8.01;85.13
59877;BME280;45749;51.140;17.184;2023-04-09T06:21:53;100956.75;;;7.94;85.33
59877;BME280;45749;51.140;17.184;2023-04-09T06:24:18;100961.00;;;7.97;85.61
59877;BME280;45749;51.140;17.184;2023-04-09T06:26:44;100973.91;;;8.02;85.74
59877;BME280;45749;51.140;17.184;2023-04-09T06:29:10;100967.63;;;8.04;85.62
59877;BME280;45749;51.140;17.184;2023-04-09T06:31:35;100969.59;;;8.01;85.56
59877;BME280;45749;51.140;17.184;2023-04-09T06:34:00;100970.69;;;7.96;85.55
59877;BME280;45749;51.140;17.184;2023-04-09T06:36:26;100967.56;;;7.88;85.77
59877;BME280;45749;51.140;17.184;2023-04-09T06:38:52;100965.19;;;7.84;86.10
59877;BME280;45749;51.140;17.184;2023-04-09T06:41:22;100966.03;;;7.84;86.26
59877;BME280;45749;51.140;17.184;2023-04-09T06:43:47;100979.09;;;7.86;86.22
59877;BME280;45749;51.140;17.184;2023-04-09T06:46:13;100979.94;;;7.86;86.34
59877;BME280;45749;51.140;17.184;2023-04-09T06:48:41;100974.88;;;7.83;86.22
59877;BME280;45749;51.140;17.184;2023-04-09T06:51:09;100973.38;;;7.78;86.34
59877;BME280;45749;51.140;17.184;2023-04-09T06:53:36;100974.31;;;7.77;86.56
59877;BME280;45749;51.140;17.184;2023-04-09T06:56:01;100979.88;;;7.70;86.97
59877;BME280;45749;51.140;17.184;2023-04-09T06:58:27;100986.34;;;7.63;87.17
59877;BME280;45749;51.140;17.184;2023-04-09T07:00:52;100984.94;;;7.56;87.42
59877;BME280;45749;51.140;17.184;2023-04-09T07:03:18;100989.28;;;7.57;87.49
59877;BME280;45749;51.140;17.184;2023-04-09T07:05:44;100991.03;;;7.57;87.67
59877;BME280;45749;51.140;17.184;2023-04-09T07:08:09;100993.75;;;7.55;87.81
59877;BME280;45749;51.140;17.184;2023-04-09T07:10:35;100996.16;;;7.60;87.77
59877;BME280;45749;51.140;17.184;2023-04-09T07:13:01;100984.81;;;7.59;87.58
59877;BME280;45749;51.140;17.184;2023-04-09T07:15:26;100982.03;;;7.62;87.67
59877;BME280;45749;51.140;17.184;2023-04-09T07:17:52;100980.53;;;7.57;87.67
59877;BME280;45749;51.140;17.184;2023-04-09T07:20:17;100983.41;;;7.52;87.94
59877;BME280;45749;51.140;17.184;2023-04-09T07:22:42;100995.75;;;7.50;88.20
59877;BME280;45749;51.140;17.184;2023-04-09T07:25:08;101004.41;;;7.52;88.19
59877;BME280;45749;51.140;17.184;2023-04-09T07:27:34;100992.44;;;7.46;88.36
59877;BME280;45749;51.140;17.184;2023-04-09T07:29:59;100993.31;;;7.47;88.35
59877;BME280;45749;51.140;17.184;2023-04-09T07:32:25;100993.91;;;7.52;88.50
59877;BME280;45749;51.140;17.184;2023-04-09T07:34:52;100991.38;;;7.50;88.49
59877;BME280;45749;51.140;17.184;2023-04-09T07:37:19;100991.28;;;7.52;88.72
59877;BME280;45749;51.140;17.184;2023-04-09T07:39:45;101000.84;;;7.53;88.83
59877;BME280;45749;51.140;17.184;2023-04-09T07:42:10;101002.78;;;7.49;88.89
59877;BME280;45749;51.140;17.184;2023-04-09T07:44:36;101007.75;;;7.56;89.03
59877;BME280;45749;51.140;17.184;2023-04-09T07:47:04;101015.56;;;7.57;89.01
59877;BME280;45749;51.140;17.184;2023-04-09T07:49:30;101007.53;;;7.60;88.98
59877;BME280;45749;51.140;17.184;2023-04-09T07:51:56;101004.91;;;7.60;88.94
59877;BME280;45749;51.140;17.184;2023-04-09T07:54:22;101006.66;;;7.60;89.12
59877;BME280;45749;51.140;17.184;2023-04-09T07:56:47;100998.63;;;7.63;89.33
59877;BME280;45749;51.140;17.184;2023-04-09T07:59:13;101001.09;;;7.66;89.03
59877;BME280;45749;51.140;17.184;2023-04-09T08:01:41;101003.13;;;7.61;88.84
59877;BME280;45749;51.140;17.184;2023-04-09T08:04:07;101000.56;;;7.59;89.25
59877;BME280;45749;51.140;17.184;2023-04-09T08:06:33;101001.34;;;7.61;89.39
59877;BME280;45749;51.140;17.184;2023-04-09T08:08:58;100997.72;;;7.64;89.51
59877;BME280;45749;51.140;17.184;2023-04-09T08:11:24;100996.63;;;7.68;89.39
59877;BME280;45749;51.140;17.184;2023-04-09T08:13:53;100990.44;;;7.69;89.13
59877;BME280;45749;51.140;17.184;2023-04-09T08:16:19;100984.34;;;7.68;88.99
59877;BME280;45749;51.140;17.184;2023-04-09T08:18:46;100991.13;;;7.72;89.43
59877;BME280;45749;51.140;17.184;2023-04-09T08:21:11;101000.66;;;7.75;89.42
59877;BME280;45749;51.140;17.184;2023-04-09T08:23:37;101009.22;;;7.79;89.19
59877;BME280;45749;51.140;17.184;2023-04-09T08:26:02;101006.53;;;7.80;89.33
59877;BME280;45749;51.140;17.184;2023-04-09T08:28:28;101003.75;;;7.83;89.13
59877;BME280;45749;51.140;17.184;2023-04-09T08:30:54;101002.03;;;7.82;89.18
59877;BME280;45749;51.140;17.184;2023-04-09T08:33:19;101004.38;;;7.88;89.67
59877;BME280;45749;51.140;17.184;2023-04-09T08:35:45;101013.25;;;7.86;89.55
59877;BME280;45749;51.140;17.184;2023-04-09T08:38:10;101012.56;;;7.82;89.27
59877;BME280;45749;51.140;17.184;2023-04-09T08:40:37;101012.78;;;7.78;89.71
59877;BME280;45749;51.140;17.184;2023-04-09T08:43:04;101009.16;;;7.80;89.65
59877;BME280;45749;51.140;17.184;2023-04-09T08:45:31;101020.22;;;7.87;89.90
59877;BME280;45749;51.140;17.184;2023-04-09T08:47:56;101013.25;;;7.86;89.58
59877;BME280;45749;51.140;17.184;2023-04-09T08:50:27;101014.09;;;7.86;89.74
59877;BME280;45749;51.140;17.184;2023-04-09T08:52:53;101016.72;;;7.86;89.55
59877;BME280;45749;51.140;17.184;2023-04-09T08:55:20;101003.03;;;7.80;89.73
59877;BME280;45749;51.140;17.184;2023-04-09T08:57:46;101010.72;;;7.84;89.75
59877;BME280;45749;51.140;17.184;2023-04-09T09:00:12;101013.25;;;7.86;90.04
59877;BME280;45749;51.140;17.184;2023-04-09T09:02:37;101009.72;;;7.87;89.98
59877;BME280;45749;51.140;17.184;2023-04-09T09:05:04;101001.19;;;7.82;90.21
59877;BME280;45749;51.140;17.184;2023-04-09T09:07:31;100997.63;;;7.83;89.83
59877;BME280;45749;51.140;17.184;2023-04-09T09:10:00;101015.81;;;7.87;90.19
59877;BME280;45749;51.140;17.184;2023-04-09T09:12:37;101015.66;;;7.90;90.14
59877;BME280;45749;51.140;17.184;2023-04-09T09:15:26;101019.19;;;7.89;89.70
59877;BME280;45749;51.140;17.184;2023-04-09T09:17:54;101023.06;;;7.82;89.87
59877;BME280;45749;51.140;17.184;2023-04-09T09:20:20;101020.28;;;7.85;90.14
59877;BME280;45749;51.140;17.184;2023-04-09T09:22:50;101007.38;;;7.81;89.99
59877;BME280;45749;51.140;17.184;2023-04-09T09:25:16;101015.03;;;7.85;90.14
59877;BME280;45749;51.140;17.184;2023-04-09T09:27:42;101026.47;;;7.84;89.86
59877;BME280;45749;51.140;17.184;2023-04-09T09:30:09;101015.31;;;7.79;90.08
59877;BME280;45749;51.140;17.184;2023-04-09T09:32:44;101024.06;;;7.80;90.33
59877;BME280;45749;51.140;17.184;2023-04-09T09:35:10;101020.53;;;7.81;90.59
59877;BME280;45749;51.140;17.184;2023-04-09T09:37:36;101029.63;;;7.91;90.73
59877;BME280;45749;51.140;17.184;2023-04-09T09:40:01;101022.75;;;7.88;90.26
59877;BME280;45749;51.140;17.184;2023-04-09T09:42:28;101016.13;;;7.81;90.37
59877;BME280;45749;51.140;17.184;2023-04-09T09:44:54;101014.28;;;7.83;90.48
59877;BME280;45749;51.140;17.184;2023-04-09T09:47:21;101021.13;;;7.86;90.44
59877;BME280;45749;51.140;17.184;2023-04-09T09:49:50;101018.50;;;7.86;90.69
59877;BME280;45749;51.140;17.184;2023-04-09T09:52:20;101015.50;;;7.93;91.00
59877;BME280;45749;51.140;17.184;2023-04-09T09:54:50;101019.66;;;7.97;90.64
59877;BME280;45749;51.140;17.184;2023-04-09T09:57:18;101005.06;;;7.92;90.22
59877;BME280;45749;51.140;17.184;2023-04-09T09:59:56;101006.06;;;7.89;90.79
59877;BME280;45749;51.140;17.184;2023-04-09T10:02:23;101003.38;;;7.91;90.89
59877;BME280;45749;51.140;17.184;2023-04-09T10:04:51;101005.91;;;7.92;91.03
59877;BME280;45749;51.140;17.184;2023-04-09T10:07:18;101009.16;;;7.97;91.11
59877;BME280;45749;51.140;17.184;2023-04-09T10:09:48;101013.00;;;8.08;91.35
59877;BME280;45749;51.140;17.184;2023-04-09T10:12:15;101012.75;;;8.12;91.06
59877;BME280;45749;51.140;17.184;2023-04-09T10:14:41;101005.28;;;8.05;90.84
59877;BME280;45749;51.140;17.184;2023-04-09T10:17:07;101005.91;;;8.10;91.64
59877;BME280;45749;51.140;17.184;2023-04-09T10:19:37;101002.19;;;8.14;91.44
59877;BME280;45749;51.140;17.184;2023-04-09T10:22:16;101009.97;;;8.15;91.51
59877;BME280;45749;51.140;17.184;2023-04-09T10:24:43;101014.09;;;8.21;91.45
59877;BME280;45749;51.140;17.184;2023-04-09T10:27:11;101014.09;;;8.21;91.19
59877;BME280;45749;51.140;17.184;2023-04-09T10:29:43;101011.53;;;8.19;91.27
59877;BME280;45749;51.140;17.184;2023-04-09T10:32:09;101010.66;;;8.19;91.30
59877;BME280;45749;51.140;17.184;2023-04-09T10:34:41;101013.66;;;8.13;91.17
59877;BME280;45749;51.140;17.184;2023-04-09T10:37:08;101005.03;;;8.09;91.40
59877;BME280;45749;51.140;17.184;2023-04-09T10:39:38;101013.84;;;8.08;91.42
59877;BME280;45749;51.140;17.184;2023-04-09T10:42:18;101004.59;;;8.01;91.66
59877;BME280;45749;51.140;17.184;2023-04-09T10:44:45;100999.19;;;8.04;92.13
59877;BME280;45749;51.140;17.184;2023-04-09T10:47:11;101000.88;;;8.05;92.30
59877;BME280;45749;51.140;17.184;2023-04-09T10:52:04;101010.66;;;8.19;92.47
59877;BME280;45749;51.140;17.184;2023-04-09T10:59:42;101010.66;;;8.36;92.35
59877;BME280;45749;51.140;17.184;2023-04-09T11:07:44;101009.50;;;8.42;92.46
59877;BME280;45749;51.140;17.184;2023-04-09T11:10:11;101006.97;;;8.40;91.78
59877;BME280;45749;51.140;17.184;2023-04-09T11:12:36;101003.78;;;8.34;92.03
59877;BME280;45749;51.140;17.184;2023-04-09T11:15:02;100997.00;;;8.30;92.51
59877;BME280;45749;51.140;17.184;2023-04-09T11:17:28;100997.50;;;8.36;92.58
59877;BME280;45749;51.140;17.184;2023-04-09T11:19:54;100996.56;;;8.37;92.57
59877;BME280;45749;51.140;17.184;2023-04-09T11:22:20;100987.84;;;8.37;92.76
59877;BME280;45749;51.140;17.184;2023-04-09T11:24:45;100993.94;;;8.37;92.60
59877;BME280;45749;51.140;17.184;2023-04-09T11:27:11;100986.72;;;8.42;92.80
59877;BME280;45749;51.140;17.184;2023-04-09T11:29:37;100992.03;;;8.41;92.21
59877;BME280;45749;51.140;17.184;2023-04-09T11:32:04;100990.47;;;8.37;92.33
59877;BME280;45749;51.140;17.184;2023-04-09T11:34:32;100987.06;;;8.35;92.56
59877;BME280;45749;51.140;17.184;2023-04-09T11:36:58;100983.75;;;8.31;93.10
59877;BME280;45749;51.140;17.184;2023-04-09T11:39:26;100987.72;;;8.40;93.23
59877;BME280;45749;51.140;17.184;2023-04-09T11:41:51;100980.56;;;8.42;93.08
59877;BME280;45749;51.140;17.184;2023-04-09T11:44:19;100987.91;;;8.53;93.18
59877;BME280;45749;51.140;17.184;2023-04-09T11:46:45;100981.72;;;8.54;92.91
59877;BME280;45749;51.140;17.184;2023-04-09T11:49:11;100994.94;;;8.52;92.87
59877;BME280;45749;51.140;17.184;2023-04-09T11:51:37;101001.13;;;8.51;93.20
59877;BME280;45749;51.140;17.184;2023-04-09T11:54:06;100994.09;;;8.52;92.98
59877;BME280;45749;51.140;17.184;2023-04-09T11:56:34;100993.75;;;8.58;93.18
59877;BME280;45749;51.140;17.184;2023-04-09T11:59:01;100999.38;;;8.67;93.22
59877;BME280;45749;51.140;17.184;2023-04-09T12:01:33;101000.00;;;8.73;93.33
59877;BME280;45749;51.140;17.184;2023-04-09T12:03:59;100995.22;;;8.63;92.25
59877;BME280;45749;51.140;17.184;2023-04-09T12:06:26;101010.22;;;8.61;92.87
59877;BME280;45749;51.140;17.184;2023-04-09T12:08:55;101008.28;;;8.65;93.03
59877;BME280;45749;51.140;17.184;2023-04-09T12:11:26;101009.06;;;8.67;93.10
59877;BME280;45749;51.140;17.184;2023-04-09T12:14:00;101013.22;;;8.71;93.12
59877;BME280;45749;51.140;17.184;2023-04-09T12:16:30;101012.47;;;8.69;92.90
59877;BME280;45749;51.140;17.184;2023-04-09T12:19:09;101014.06;;;8.72;93.38
59877;BME280;45749;51.140;17.184;2023-04-09T12:24:13;101005.25;;;8.73;92.83
59877;BME280;45749;51.140;17.184;2023-04-09T12:26:39;101017.38;;;8.75;92.97
59877;BME280;45749;51.140;17.184;2023-04-09T12:29:04;101018.16;;;8.77;93.02
59877;BME280;45749;51.140;17.184;2023-04-09T12:31:30;101010.19;;;8.79;92.77
59877;BME280;45749;51.140;17.184;2023-04-09T12:33:55;101014.41;;;8.81;92.76
59877;BME280;45749;51.140;17.184;2023-04-09T12:36:20;101013.72;;;8.78;92.72
59877;BME280;45749;51.140;17.184;2023-04-09T12:38:48;101008.31;;;8.81;92.77
59877;BME280;45749;51.140;17.184;2023-04-09T12:41:13;101006.69;;;8.78;92.74
59877;BME280;45749;51.140;17.184;2023-04-09T12:43:40;101003.81;;;8.83;92.88
59877;BME280;45749;51.140;17.184;2023-04-09T12:46:07;100997.03;;;8.79;92.86
59877;BME280;45749;51.140;17.184;2023-04-09T12:48:33;101006.34;;;8.84;93.00
59877;BME280;45749;51.140;17.184;2023-04-09T12:50:59;101015.88;;;8.87;93.24
59877;BME280;45749;51.140;17.184;2023-04-09T12:53:24;101004.34;;;8.89;92.89
59877;BME280;45749;51.140;17.184;2023-04-09T12:55:50;101012.97;;;8.91;92.78
59877;BME280;45749;51.140;17.184;2023-04-09T12:58:15;101007.97;;;8.87;92.76
59877;BME280;45749;51.140;17.184;2023-04-09T13:00:41;101012.56;;;8.83;92.98
59877;BME280;45749;51.140;17.184;2023-04-09T13:03:06;101010.88;;;8.82;93.19
59877;BME280;45749;51.140;17.184;2023-04-09T13:05:32;101005.28;;;8.88;93.38
59877;BME280;45749;51.140;17.184;2023-04-09T13:08:00;101003.22;;;8.93;93.22
59877;BME280;45749;51.140;17.184;2023-04-09T13:10:26;101002.28;;;8.95;93.01